Weather at St Louis Lambert International Airport

Public forecast

Using degrees Fahrenheit for public forecast. Weather courtesy of forecast.io.

Current aviation weather report (METAR) for St Louis Lambert International Airport

Retrieved 2021/01/23 12:51 UTC (44 minutes ago):

KSTL 231251Z 10005KT 10SM BKN250 M08/M12 A3034 RMK AO2 SLP290 T10781122

Aviation forecast (TAF) for St Louis Lambert International Airport

Retrieved 2021/01/23 12:22 UTC (1 hour ago):

TAF KSTL 231120Z 2312/2418 VRB04KT P6SM SCT250 FM240600 14007KT P6SM VCSH BKN050 FM240800 15005KT P6SM -RA OVC026 FM241200 16005KT P6SM VCSH OVC012